Time;durP1;ratioP1;P1;durP2;ratioP2;P2;SDS_P1;SDS_P2;PMS_P1;PMS_P2;Temp;Humidity;BMP_temperature;BMP_pressure;BME280_temperature;BME280_humidity;BME280_pressure;Samples;Min_cycle;Max_cycle;Signal;HPM_P1;HPM_P2
2022/05/08 00:00:11;;;;;;;10.63;8.38;;;;;;;;;;4950121;29;20074;-78
2022/05/08 00:02:40;;;;;;;9.45;8.55;;;;;;;;;;4949865;29;20043;-78
2022/05/08 00:05:07;;;;;;;13.55;10.43;;;;;;;;;;4950220;29;20186;-78
2022/05/08 00:07:33;;;;;;;13.05;8.93;;;;;;;;;;4949841;29;20048;-77
2022/05/08 00:09:58;;;;;;;17.92;8.25;;;;;;;;;;4950191;29;20127;-78
2022/05/08 00:12:24;;;;;;;7.30;6.60;;;;;;;;;;4933063;29;20422;-77
2022/05/08 00:14:50;;;;;;;7.38;5.40;;;;;;;;;;4961809;29;20046;-75
2022/05/08 00:17:16;;;;;;;9.23;4.60;;;;;;;;;;4957061;28;20050;-76
2022/05/08 00:19:43;;;;;;;10.20;5.50;;;;;;;;;;4953606;29;20043;-77
2022/05/08 00:22:10;;;;;;;11.48;6.32;;;;;;;;;;4953831;29;20051;-78
2022/05/08 00:24:36;;;;;;;11.13;10.02;;;;;;;;;;4953023;29;20058;-77
2022/05/08 00:27:02;;;;;;;14.57;10.95;;;;;;;;;;4953410;29;20051;-79
2022/05/08 00:29:28;;;;;;;12.13;9.20;;;;;;;;;;4936040;29;20106;-78
2022/05/08 00:31:54;;;;;;;12.98;9.70;;;;;;;;;;4953057;29;20041;-79
2022/05/08 00:34:20;;;;;;;6.05;5.45;;;;;;;;;;4936192;29;20061;-79
2022/05/08 00:36:46;;;;;;;9.18;7.07;;;;;;;;;;4935880;29;20048;-77
2022/05/08 00:39:12;;;;;;;9.02;5.60;;;;;;;;;;4953227;29;20521;-78
2022/05/08 00:41:38;;;;;;;11.30;6.20;;;;;;;;;;4952601;29;20411;-78
2022/05/08 00:44:04;;;;;;;15.13;7.88;;;;;;;;;;4953180;29;20051;-78
2022/05/08 00:46:30;;;;;;;13.20;11.45;;;;;;;;;;4953114;29;20039;-76
2022/05/08 00:48:56;;;;;;;18.80;12.35;;;;;;;;;;4952859;29;20058;-76
2022/05/08 00:51:22;;;;;;;18.85;11.70;;;;;;;;;;4953487;29;20035;-76
2022/05/08 00:53:49;;;;;;;16.95;10.63;;;;;;;;;;4953250;29;20074;-77
2022/05/08 00:56:15;;;;;;;15.10;8.63;;;;;;;;;;4952841;29;20051;-76
2022/05/08 00:58:41;;;;;;;11.55;6.53;;;;;;;;;;4952485;29;20061;-77
2022/05/08 01:01:08;;;;;;;11.88;6.32;;;;;;;;;;4952250;29;20187;-77
2022/05/08 01:03:34;;;;;;;11.23;5.70;;;;;;;;;;4952580;29;20070;-77
2022/05/08 01:06:03;;;;;;;8.73;5.65;;;;;;;;;;4952614;29;20431;-77
2022/05/08 01:08:29;;;;;;;6.22;5.07;;;;;;;;;;4952446;29;20078;-78
2022/05/08 01:10:55;;;;;;;5.95;5.32;;;;;;;;;;4951380;29;20063;-80
2022/05/08 01:13:21;;;;;;;7.63;4.82;;;;;;;;;;4952464;29;20496;-79
2022/05/08 01:15:47;;;;;;;9.50;5.38;;;;;;;;;;4952338;29;20038;-80
2022/05/08 01:18:13;;;;;;;11.48;6.10;;;;;;;;;;4952527;29;20059;-79
2022/05/08 01:20:40;;;;;;;6.53;5.38;;;;;;;;;;4935175;29;20130;-79
2022/05/08 01:23:06;;;;;;;6.47;5.82;;;;;;;;;;4952265;29;20066;-79
2022/05/08 01:25:33;;;;;;;8.57;5.30;;;;;;;;;;4952621;29;20031;-80
2022/05/08 01:28:03;;;;;;;10.50;5.03;;;;;;;;;;4953447;29;20474;-80
2022/05/08 01:30:29;;;;;;;6.68;5.22;;;;;;;;;;4952375;28;20185;-82
2022/05/08 01:32:57;;;;;;;5.97;5.32;;;;;;;;;;4952308;29;20062;-79
2022/05/08 01:35:24;;;;;;;8.02;5.22;;;;;;;;;;4952171;29;20475;-81
2022/05/08 01:37:50;;;;;;;9.63;5.22;;;;;;;;;;4952210;29;20061;-79
2022/05/08 01:40:17;;;;;;;6.82;5.53;;;;;;;;;;4952488;29;20073;-83
2022/05/08 01:42:44;;;;;;;5.82;5.00;;;;;;;;;;4951783;29;20106;-78
2022/05/08 01:45:12;;;;;;;5.57;4.32;;;;;;;;;;4952145;29;20075;-78
2022/05/08 01:50:23;;;;;;;7.43;4.78;;;;;;;;;;4953147;29;20039;-78
2022/05/08 01:52:49;;;;;;;6.13;5.07;;;;;;;;;;4955700;29;20114;-77
2022/05/08 01:55:15;;;;;;;6.45;4.68;;;;;;;;;;4965009;29;20127;-77
2022/05/08 01:57:41;;;;;;;7.45;4.85;;;;;;;;;;4963245;29;20062;-77
2022/05/08 02:00:07;;;;;;;7.45;4.60;;;;;;;;;;4961552;29;20054;-78
2022/05/08 02:02:40;;;;;;;8.32;4.32;;;;;;;;;;4957345;29;20047;-77
2022/05/08 02:05:07;;;;;;;7.90;4.93;;;;;;;;;;4934958;29;20047;-76
2022/05/08 02:07:33;;;;;;;4.28;3.88;;;;;;;;;;4934814;29;20498;-77
2022/05/08 02:09:59;;;;;;;5.32;4.82;;;;;;;;;;4951293;29;20522;-76
2022/05/08 02:12:25;;;;;;;8.20;4.95;;;;;;;;;;4951524;29;20043;-77
2022/05/08 02:14:51;;;;;;;4.22;3.88;;;;;;;;;;4951232;29;20039;-77
2022/05/08 02:17:17;;;;;;;8.05;4.70;;;;;;;;;;4951450;29;20038;-75
2022/05/08 02:19:44;;;;;;;6.43;5.03;;;;;;;;;;4950965;29;20047;-76
2022/05/08 02:22:09;;;;;;;4.97;4.20;;;;;;;;;;4951368;29;20206;-76
2022/05/08 02:24:35;;;;;;;5.20;4.50;;;;;;;;;;4951113;29;20047;-75
2022/05/08 02:27:01;;;;;;;5.05;4.45;;;;;;;;;;4951071;29;20119;-75
2022/05/08 02:29:28;;;;;;;9.50;5.07;;;;;;;;;;4951204;29;20058;-76
2022/05/08 02:31:54;;;;;;;5.93;4.68;;;;;;;;;;4951011;29;20035;-76
2022/05/08 02:34:20;;;;;;;4.68;4.13;;;;;;;;;;4951006;29;20051;-76
2022/05/08 02:36:46;;;;;;;5.15;4.10;;;;;;;;;;4950976;29;20039;-77
2022/05/08 02:39:12;;;;;;;6.07;4.78;;;;;;;;;;4951072;29;20042;-77
2022/05/08 02:41:38;;;;;;;7.05;4.90;;;;;;;;;;4950300;28;20106;-77
2022/05/08 02:44:08;;;;;;;8.38;4.57;;;;;;;;;;4950972;29;20061;-78
2022/05/08 02:46:33;;;;;;;5.78;4.90;;;;;;;;;;4951012;29;20130;-77
2022/05/08 02:48:59;;;;;;;12.50;5.07;;;;;;;;;;4950610;29;20048;-76
2022/05/08 02:51:25;;;;;;;11.68;4.60;;;;;;;;;;4951027;29;20035;-77
2022/05/08 02:53:51;;;;;;;13.68;4.28;;;;;;;;;;4950623;29;20047;-77
2022/05/08 02:59:01;;;;;;;6.38;5.10;;;;;;;;;;4950645;29;20043;-76
2022/05/08 03:01:27;;;;;;;9.32;5.40;;;;;;;;;;4950921;29;20039;-76
2022/05/08 03:03:53;;;;;;;6.18;4.65;;;;;;;;;;4950536;29;20055;-76
2022/05/08 03:06:19;;;;;;;7.15;4.80;;;;;;;;;;4950826;29;20174;-76
2022/05/08 03:08:45;;;;;;;8.05;4.60;;;;;;;;;;4950561;29;20348;-78
2022/05/08 03:11:26;;;;;;;5.22;4.70;;;;;;;;;;4950825;29;20047;-78
2022/05/08 03:13:53;;;;;;;5.28;4.10;;;;;;;;;;4950321;29;20050;-77
2022/05/08 03:16:19;;;;;;;5.18;4.68;;;;;;;;;;4950875;29;20051;-77
2022/05/08 03:18:45;;;;;;;8.13;6.03;;;;;;;;;;4950499;29;20062;-78
2022/05/08 03:21:12;;;;;;;4.95;4.47;;;;;;;;;;4951156;29;20043;-78
2022/05/08 03:23:41;;;;;;;4.57;4.18;;;;;;;;;;4950415;29;20055;-77
2022/05/08 03:26:07;;;;;;;4.97;4.43;;;;;;;;;;4950777;29;20102;-78
2022/05/08 03:28:33;;;;;;;5.72;5.13;;;;;;;;;;4950466;29;20070;-77
2022/05/08 03:30:59;;;;;;;5.53;4.68;;;;;;;;;;4950435;29;20103;-76
2022/05/08 03:33:28;;;;;;;5.40;4.90;;;;;;;;;;4950538;29;20051;-76
2022/05/08 03:35:54;;;;;;;6.18;4.40;;;;;;;;;;4950305;29;20399;-77
2022/05/08 03:38:20;;;;;;;6.85;4.63;;;;;;;;;;4950464;29;20061;-76
2022/05/08 03:40:45;;;;;;;9.07;4.85;;;;;;;;;;4949983;29;20047;-76
2022/05/08 03:43:11;;;;;;;11.00;5.10;;;;;;;;;;4950553;29;20084;-77
2022/05/08 03:45:37;;;;;;;7.75;5.38;;;;;;;;;;4955085;29;20046;-76
2022/05/08 03:48:03;;;;;;;9.35;5.35;;;;;;;;;;4954869;29;20107;-76
2022/05/08 03:50:29;;;;;;;8.38;5.32;;;;;;;;;;4950611;29;20581;-77
2022/05/08 03:52:55;;;;;;;7.20;4.72;;;;;;;;;;4951945;28;20461;-79
2022/05/08 03:55:21;;;;;;;5.75;4.95;;;;;;;;;;4954300;29;20507;-78
2022/05/08 03:57:47;;;;;;;13.32;5.28;;;;;;;;;;4953755;29;20113;-81
2022/05/08 04:00:15;;;;;;;7.90;5.70;;;;;;;;;;4953906;29;20066;-80
2022/05/08 04:02:40;;;;;;;7.50;4.88;;;;;;;;;;4954086;29;20177;-79
2022/05/08 04:05:07;;;;;;;5.40;4.90;;;;;;;;;;4936550;29;20130;-79
2022/05/08 04:07:33;;;;;;;5.32;4.82;;;;;;;;;;4954246;29;20055;-81
2022/05/08 04:09:59;;;;;;;9.40;4.90;;;;;;;;;;4954002;29;20674;-81
2022/05/08 04:12:26;;;;;;;8.60;5.55;;;;;;;;;;4954095;29;20039;-81
2022/05/08 04:14:52;;;;;;;13.18;5.60;;;;;;;;;;4936824;29;20043;-82
2022/05/08 04:17:18;;;;;;;6.65;4.82;;;;;;;;;;4936960;29;20046;-81
2022/05/08 04:19:44;;;;;;;6.63;5.10;;;;;;;;;;4953073;29;20123;-81
2022/05/08 04:24:57;;;;;;;8.93;5.28;;;;;;;;;;4953426;29;20058;-81
2022/05/08 04:27:25;;;;;;;8.57;6.13;;;;;;;;;;4953777;29;20114;-80
2022/05/08 04:29:51;;;;;;;13.10;5.40;;;;;;;;;;4953117;29;20047;-81
2022/05/08 04:32:16;;;;;;;5.75;5.22;;;;;;;;;;4953384;29;20384;-80
2022/05/08 04:34:42;;;;;;;7.45;4.95;;;;;;;;;;4953234;29;20051;-81
2022/05/08 04:37:09;;;;;;;7.10;5.53;;;;;;;;;;4953319;29;20046;-81
2022/05/08 04:39:35;;;;;;;8.93;5.88;;;;;;;;;;4953281;29;20106;-81
2022/05/08 04:42:01;;;;;;;7.03;5.80;;;;;;;;;;4936058;29;20039;-80
2022/05/08 04:44:28;;;;;;;7.18;5.95;;;;;;;;;;4953297;29;20059;-81
2022/05/08 04:46:53;;;;;;;8.05;5.15;;;;;;;;;;4952955;29;20035;-81
2022/05/08 04:49:19;;;;;;;8.65;5.60;;;;;;;;;;4953297;29;20078;-80
2022/05/08 04:51:45;;;;;;;13.38;5.93;;;;;;;;;;4953215;29;20063;-80
2022/05/08 04:54:11;;;;;;;6.03;5.28;;;;;;;;;;4953437;29;20058;-81
2022/05/08 04:56:37;;;;;;;13.00;5.28;;;;;;;;;;4953696;29;20047;-82
2022/05/08 04:59:03;;;;;;;5.40;4.70;;;;;;;;;;4953583;29;20051;-80
2022/05/08 05:01:29;;;;;;;10.32;5.95;;;;;;;;;;4953405;29;20035;-81
2022/05/08 05:03:55;;;;;;;10.32;5.38;;;;;;;;;;4960596;28;20079;-83
2022/05/08 05:06:20;;;;;;;7.80;5.57;;;;;;;;;;4945976;29;20034;-83
2022/05/08 05:08:46;;;;;;;5.43;4.90;;;;;;;;;;4960006;29;20047;-82
2022/05/08 05:11:12;;;;;;;9.98;4.72;;;;;;;;;;4949966;29;20036;-82
2022/05/08 05:13:38;;;;;;;6.35;5.25;;;;;;;;;;4953203;29;20047;-76
2022/05/08 05:16:04;;;;;;;6.32;5.72;;;;;;;;;;4945406;29;20643;-77
2022/05/08 05:18:30;;;;;;;8.77;4.38;;;;;;;;;;4938152;29;20092;-77
2022/05/08 05:20:56;;;;;;;9.50;5.57;;;;;;;;;;4923660;29;20040;-76
2022/05/08 05:23:22;;;;;;;8.02;5.30;;;;;;;;;;4948821;29;20062;-77
2022/05/08 05:25:50;;;;;;;8.95;5.70;;;;;;;;;;4962893;29;20039;-77
2022/05/08 05:28:16;;;;;;;8.77;5.72;;;;;;;;;;4950794;29;20146;-76
2022/05/08 05:30:42;;;;;;;6.13;4.72;;;;;;;;;;4954467;29;20107;-77
2022/05/08 05:33:10;;;;;;;10.15;6.30;;;;;;;;;;4955177;29;20059;-76
2022/05/08 05:35:37;;;;;;;11.25;6.25;;;;;;;;;;4952593;29;20036;-76
2022/05/08 05:38:05;;;;;;;10.48;5.60;;;;;;;;;;4948320;28;20130;-74
2022/05/08 05:40:31;;;;;;;8.88;5.57;;;;;;;;;;4941184;29;20039;-77
2022/05/08 05:42:57;;;;;;;7.85;5.80;;;;;;;;;;4945258;29;20601;-76
2022/05/08 05:45:23;;;;;;;10.85;5.95;;;;;;;;;;4950895;29;20077;-77
2022/05/08 05:47:49;;;;;;;12.70;5.90;;;;;;;;;;4935626;29;20078;-76
2022/05/08 05:50:24;;;;;;;9.60;5.82;;;;;;;;;;4932346;29;20071;-77
2022/05/08 05:52:50;;;;;;;13.82;6.10;;;;;;;;;;4931562;29;20404;-77
2022/05/08 05:55:16;;;;;;;12.35;6.00;;;;;;;;;;4939013;29;20046;-75
2022/05/08 05:57:42;;;;;;;8.38;5.65;;;;;;;;;;4949555;29;20482;-77
2022/05/08 06:00:12;;;;;;;9.07;5.40;;;;;;;;;;4948882;29;20054;-77
2022/05/08 06:02:39;;;;;;;8.55;5.55;;;;;;;;;;4949448;29;20048;-76
2022/05/08 06:05:08;;;;;;;7.03;4.75;;;;;;;;;;4949234;29;20054;-76
2022/05/08 06:07:34;;;;;;;13.80;5.60;;;;;;;;;;4933107;29;20101;-78
2022/05/08 06:10:00;;;;;;;6.43;4.88;;;;;;;;;;4949264;29;20142;-78
2022/05/08 06:12:26;;;;;;;8.25;5.88;;;;;;;;;;4945273;28;20059;-78
2022/05/08 06:14:52;;;;;;;11.02;5.80;;;;;;;;;;4939448;28;20526;-78
2022/05/08 06:17:18;;;;;;;11.73;6.38;;;;;;;;;;4939227;29;20600;-77
2022/05/08 06:19:44;;;;;;;9.05;5.70;;;;;;;;;;4949421;29;20106;-76
2022/05/08 06:22:10;;;;;;;11.75;6.07;;;;;;;;;;4945377;29;20039;-78
2022/05/08 06:24:36;;;;;;;8.88;5.63;;;;;;;;;;4942811;29;20047;-78
2022/05/08 06:27:02;;;;;;;8.20;5.85;;;;;;;;;;4925091;29;20031;-77
2022/05/08 06:29:28;;;;;;;8.60;5.72;;;;;;;;;;4943789;29;20578;-77
2022/05/08 06:31:54;;;;;;;8.48;6.72;;;;;;;;;;4947492;29;20031;-78
2022/05/08 06:34:20;;;;;;;8.10;5.13;;;;;;;;;;4944646;29;20146;-77
2022/05/08 06:36:46;;;;;;;8.52;5.53;;;;;;;;;;4927518;29;20137;-77
2022/05/08 06:39:13;;;;;;;6.40;5.78;;;;;;;;;;4937277;29;20127;-77
2022/05/08 06:41:39;;;;;;;6.45;4.97;;;;;;;;;;4942853;29;20051;-79
2022/05/08 06:44:05;;;;;;;7.28;6.20;;;;;;;;;;4948883;29;20145;-78
2022/05/08 06:46:32;;;;;;;10.18;5.13;;;;;;;;;;4950912;29;20183;-77
2022/05/08 06:48:58;;;;;;;7.45;5.85;;;;;;;;;;4950765;29;20047;-78
2022/05/08 06:51:24;;;;;;;10.82;5.80;;;;;;;;;;4933702;29;20047;-77
2022/05/08 06:53:50;;;;;;;6.05;5.47;;;;;;;;;;4951025;29;20047;-78
2022/05/08 06:56:16;;;;;;;11.45;5.25;;;;;;;;;;4950534;29;20055;-77
2022/05/08 07:01:36;;;;;;;11.02;5.60;;;;;;;;;;4942529;29;20031;-76
2022/05/08 07:04:02;;;;;;;7.25;5.18;;;;;;;;;;4950606;29;20094;-77
2022/05/08 07:06:29;;;;;;;7.47;5.38;;;;;;;;;;4926857;29;20581;-76
2022/05/08 07:08:55;;;;;;;7.53;6.25;;;;;;;;;;4932217;29;20052;-78
2022/05/08 07:11:21;;;;;;;9.50;5.80;;;;;;;;;;4949191;29;20417;-78
2022/05/08 07:13:47;;;;;;;9.52;6.40;;;;;;;;;;4950772;29;20051;-79
2022/05/08 07:16:16;;;;;;;12.65;5.40;;;;;;;;;;4918179;29;20183;-77
2022/05/08 07:18:42;;;;;;;8.35;5.85;;;;;;;;;;4948492;28;20052;-78
2022/05/08 07:21:08;;;;;;;6.05;5.43;;;;;;;;;;4950471;29;20098;-78
2022/05/08 07:23:34;;;;;;;8.90;5.88;;;;;;;;;;4933725;29;20059;-79
2022/05/08 07:26:00;;;;;;;6.10;5.47;;;;;;;;;;4920116;28;20100;-78
2022/05/08 07:28:27;;;;;;;10.68;5.82;;;;;;;;;;4934266;29;20050;-77
2022/05/08 07:30:54;;;;;;;10.13;6.07;;;;;;;;;;4934830;29;20474;-76
2022/05/08 07:33:20;;;;;;;15.55;6.45;;;;;;;;;;4935192;29;20139;-72
2022/05/08 07:38:30;;;;;;;10.57;5.85;;;;;;;;;;4936858;29;20536;-72
2022/05/08 07:40:57;;;;;;;7.78;5.70;;;;;;;;;;4953311;29;20133;-72
2022/05/08 07:43:26;;;;;;;13.82;5.00;;;;;;;;;;4932829;29;20052;-73
2022/05/08 07:45:52;;;;;;;6.07;5.47;;;;;;;;;;4935213;29;20074;-73
2022/05/08 07:48:18;;;;;;;5.82;5.03;;;;;;;;;;4933336;29;20493;-72
2022/05/08 07:50:45;;;;;;;9.13;5.13;;;;;;;;;;4951579;29;20082;-72
2022/05/08 07:53:12;;;;;;;8.38;5.40;;;;;;;;;;4953654;29;20085;-72
2022/05/08 07:55:38;;;;;;;7.72;5.20;;;;;;;;;;4953146;29;20043;-72
2022/05/08 07:58:04;;;;;;;9.57;5.82;;;;;;;;;;4953422;29;20053;-71
2022/05/08 08:00:30;;;;;;;6.80;5.30;;;;;;;;;;4935144;29;20047;-71
2022/05/08 08:02:56;;;;;;;7.88;6.00;;;;;;;;;;4952639;29;20048;-71
2022/05/08 08:05:22;;;;;;;7.03;5.25;;;;;;;;;;4953469;29;20063;-73
2022/05/08 08:07:48;;;;;;;8.18;6.07;;;;;;;;;;4952884;29;20036;-73
2022/05/08 08:10:14;;;;;;;9.23;6.18;;;;;;;;;;4953069;29;20051;-73
2022/05/08 08:12:40;;;;;;;6.93;5.28;;;;;;;;;;4952330;29;20533;-72
2022/05/08 08:15:07;;;;;;;7.43;6.00;;;;;;;;;;4934489;28;20102;-72
2022/05/08 08:17:32;;;;;;;7.07;6.18;;;;;;;;;;4930819;29;20434;-72
2022/05/08 08:19:58;;;;;;;14.73;6.45;;;;;;;;;;4933497;29;20058;-72
2022/05/08 08:22:24;;;;;;;7.57;6.00;;;;;;;;;;4948861;29;20055;-73
2022/05/08 08:24:50;;;;;;;11.90;5.75;;;;;;;;;;4946290;29;20059;-72
2022/05/08 08:27:18;;;;;;;10.23;6.43;;;;;;;;;;4934859;29;20577;-72
2022/05/08 08:29:44;;;;;;;10.80;6.22;;;;;;;;;;4952670;29;20569;-72
2022/05/08 08:32:09;;;;;;;8.55;6.22;;;;;;;;;;4941764;29;20123;-72
2022/05/08 08:34:35;;;;;;;10.95;6.82;;;;;;;;;;4935228;29;20165;-73
2022/05/08 08:37:02;;;;;;;15.18;6.90;;;;;;;;;;4936170;29;20055;-72
2022/05/08 08:39:27;;;;;;;15.85;6.00;;;;;;;;;;4951115;28;20042;-73
2022/05/08 08:42:08;;;;;;;13.63;6.90;;;;;;;;;;4931842;29;20039;-72
2022/05/08 08:50:03;;;;;;;15.45;7.68;;;;;;;;;;4946950;29;20142;-72
2022/05/08 08:52:29;;;;;;;10.82;7.20;;;;;;;;;;4933475;29;20391;-72
2022/05/08 08:54:55;;;;;;;15.18;7.55;;;;;;;;;;4952503;29;20042;-71
2022/05/08 08:57:21;;;;;;;12.82;6.63;;;;;;;;;;4935132;29;20055;-72
2022/05/08 08:59:47;;;;;;;17.90;7.50;;;;;;;;;;4911389;29;20039;-73
2022/05/08 09:02:16;;;;;;;10.48;7.18;;;;;;;;;;4916102;29;20140;-72
2022/05/08 09:04:44;;;;;;;17.48;7.60;;;;;;;;;;4928544;29;20051;-73
2022/05/08 09:07:28;;;;;;;9.75;7.13;;;;;;;;;;4909670;29;20032;-72
2022/05/08 09:10:05;;;;;;;9.95;7.15;;;;;;;;;;4926879;29;20075;-72
2022/05/08 09:12:31;;;;;;;9.68;7.38;;;;;;;;;;4924005;29;20039;-77
2022/05/08 09:14:56;;;;;;;10.48;6.97;;;;;;;;;;4925935;29;20036;-73
2022/05/08 09:17:22;;;;;;;7.78;6.15;;;;;;;;;;4932456;29;20048;-73
2022/05/08 09:19:48;;;;;;;9.90;6.50;;;;;;;;;;4878853;29;20533;-72
2022/05/08 09:22:16;;;;;;;12.90;6.78;;;;;;;;;;4930712;29;20120;-73
2022/05/08 09:24:53;;;;;;;12.13;6.43;;;;;;;;;;4914558;29;20035;-73
2022/05/08 09:27:19;;;;;;;10.35;6.30;;;;;;;;;;4914671;29;20051;-73
2022/05/08 09:29:44;;;;;;;16.30;7.00;;;;;;;;;;4927011;29;20809;-72
2022/05/08 09:32:22;;;;;;;10.93;6.28;;;;;;;;;;4928260;29;20044;-73
2022/05/08 09:34:57;;;;;;;23.63;7.85;;;;;;;;;;4905006;29;20059;-72
2022/05/08 09:37:24;;;;;;;6.28;5.70;;;;;;;;;;4931250;29;20208;-72
2022/05/08 09:39:51;;;;;;;8.95;6.97;;;;;;;;;;4931985;29;20528;-73
2022/05/08 09:42:36;;;;;;;11.23;6.90;;;;;;;;;;4932692;29;20048;-73
2022/05/08 09:45:02;;;;;;;8.07;6.43;;;;;;;;;;4930280;29;20507;-72
2022/05/08 09:47:44;;;;;;;9.13;5.97;;;;;;;;;;4924706;29;20039;-72
2022/05/08 09:50:10;;;;;;;10.48;6.45;;;;;;;;;;4923817;29;20043;-78
2022/05/08 09:52:38;;;;;;;9.18;7.10;;;;;;;;;;4914515;29;20044;-73
2022/05/08 09:55:04;;;;;;;12.48;6.90;;;;;;;;;;4930054;29;20954;-72
2022/05/08 09:57:31;;;;;;;11.65;6.03;;;;;;;;;;4948755;29;20050;-73
2022/05/08 09:59:58;;;;;;;12.00;6.15;;;;;;;;;;4950118;29;20043;-74
2022/05/08 10:02:24;;;;;;;9.93;6.03;;;;;;;;;;4934003;29;20042;-73
2022/05/08 10:04:50;;;;;;;6.70;5.97;;;;;;;;;;4947763;29;20062;-73
2022/05/08 10:07:16;;;;;;;12.25;6.22;;;;;;;;;;4911275;29;20059;-73
2022/05/08 10:15:20;;;;;;;8.77;6.03;;;;;;;;;;4945065;29;20044;-74
2022/05/08 10:17:46;;;;;;;10.43;6.50;;;;;;;;;;4950511;29;20134;-73
2022/05/08 10:20:12;;;;;;;12.57;5.68;;;;;;;;;;4946764;29;20039;-73
2022/05/08 10:22:50;;;;;;;12.38;6.03;;;;;;;;;;4946853;29;20387;-74
2022/05/08 10:25:17;;;;;;;8.35;5.50;;;;;;;;;;4948363;29;20050;-73
2022/05/08 10:28:02;;;;;;;11.63;6.38;;;;;;;;;;4943284;29;20038;-73
2022/05/08 10:30:28;;;;;;;7.47;6.35;;;;;;;;;;4949388;29;20070;-73
2022/05/08 10:32:54;;;;;;;7.30;5.78;;;;;;;;;;4949275;29;20502;-74
2022/05/08 10:35:26;;;;;;;7.88;5.70;;;;;;;;;;4950142;29;20540;-73
2022/05/08 10:38:16;;;;;;;7.10;5.75;;;;;;;;;;4949773;29;20138;-74
2022/05/08 10:40:42;;;;;;;17.27;6.10;;;;;;;;;;4948600;29;20103;-73
2022/05/08 10:43:14;;;;;;;6.82;5.45;;;;;;;;;;4932789;29;20533;-74
2022/05/08 10:45:42;;;;;;;8.70;4.95;;;;;;;;;;4949112;29;20035;-74
2022/05/08 10:48:12;;;;;;;10.35;5.82;;;;;;;;;;4942793;28;20044;-72
2022/05/08 10:50:39;;;;;;;11.53;5.63;;;;;;;;;;4943237;29;20055;-72
2022/05/08 10:53:05;;;;;;;6.65;5.70;;;;;;;;;;4944962;29;20295;-73
2022/05/08 10:55:31;;;;;;;6.65;5.50;;;;;;;;;;4949409;29;20047;-74
2022/05/08 10:57:57;;;;;;;12.57;5.00;;;;;;;;;;4950041;29;20043;-72
2022/05/08 11:00:24;;;;;;;13.20;4.88;;;;;;;;;;4949570;29;20043;-74
2022/05/08 11:02:56;;;;;;;6.18;5.20;;;;;;;;;;4949039;28;20470;-74
2022/05/08 11:05:22;;;;;;;8.88;5.45;;;;;;;;;;4949703;29;20061;-74
2022/05/08 11:07:48;;;;;;;11.07;5.13;;;;;;;;;;4949626;29;20089;-73
2022/05/08 11:10:18;;;;;;;8.25;4.57;;;;;;;;;;4949260;29;20463;-74
2022/05/08 11:12:54;;;;;;;13.10;4.90;;;;;;;;;;4949798;29;20043;-74
2022/05/08 11:15:20;;;;;;;9.70;5.63;;;;;;;;;;4947134;29;20057;-74
2022/05/08 11:18:02;;;;;;;5.63;4.63;;;;;;;;;;4948655;29;20074;-74
2022/05/08 11:20:28;;;;;;;6.80;4.78;;;;;;;;;;4931927;29;20099;-73
2022/05/08 11:22:56;;;;;;;11.95;5.28;;;;;;;;;;4949791;29;20082;-74
2022/05/08 11:25:22;;;;;;;17.98;5.00;;;;;;;;;;4937994;29;20077;-74
2022/05/08 11:27:52;;;;;;;12.70;5.03;;;;;;;;;;4931074;29;20553;-72
2022/05/08 11:30:31;;;;;;;8.60;5.40;;;;;;;;;;4930680;29;20507;-74
2022/05/08 11:38:42;;;;;;;5.85;4.30;;;;;;;;;;4928817;29;20542;-73
2022/05/08 11:41:08;;;;;;;9.52;5.18;;;;;;;;;;4911838;29;20050;-74
2022/05/08 11:43:39;;;;;;;6.60;5.15;;;;;;;;;;4929059;29;20052;-73
2022/05/08 11:46:05;;;;;;;6.50;5.20;;;;;;;;;;4929325;29;20039;-74
2022/05/08 11:48:36;;;;;;;11.45;5.93;;;;;;;;;;4898643;29;20473;-74
2022/05/08 11:51:02;;;;;;;5.05;4.57;;;;;;;;;;4918715;29;20100;-74
2022/05/08 11:53:37;;;;;;;7.15;4.18;;;;;;;;;;4930303;29;20130;-74
2022/05/08 11:56:18;;;;;;;6.85;5.03;;;;;;;;;;4932957;29;20327;-74
2022/05/08 11:58:44;;;;;;;15.13;5.22;;;;;;;;;;4949758;29;20091;-74
2022/05/08 12:01:20;;;;;;;5.75;5.25;;;;;;;;;;4932242;29;20046;-74
2022/05/08 12:03:46;;;;;;;5.07;4.57;;;;;;;;;;4949820;29;20082;-73
2022/05/08 12:06:12;;;;;;;13.90;4.93;;;;;;;;;;4932325;29;20502;-74
2022/05/08 12:08:38;;;;;;;5.40;4.40;;;;;;;;;;4949972;29;20051;-73
2022/05/08 12:11:04;;;;;;;5.38;4.88;;;;;;;;;;4949645;29;20043;-72
2022/05/08 12:13:34;;;;;;;7.28;4.40;;;;;;;;;;4950644;28;20414;-72
2022/05/08 12:16:15;;;;;;;9.90;4.55;;;;;;;;;;4947436;29;20035;-72
2022/05/08 12:19:01;;;;;;;11.77;5.43;;;;;;;;;;4945190;29;20055;-72
2022/05/08 12:21:30;;;;;;;8.18;4.60;;;;;;;;;;4934285;29;20047;-72
2022/05/08 12:23:57;;;;;;;7.63;4.50;;;;;;;;;;4950131;29;20110;-73
2022/05/08 12:26:23;;;;;;;11.98;4.88;;;;;;;;;;4951314;29;20066;-72
2022/05/08 12:28:50;;;;;;;5.65;4.60;;;;;;;;;;4922050;29;20511;-73
2022/05/08 12:31:15;;;;;;;7.20;4.78;;;;;;;;;;4921638;29;20058;-71
2022/05/08 12:33:41;;;;;;;8.27;4.75;;;;;;;;;;4944824;29;20035;-72
2022/05/08 12:36:07;;;;;;;5.13;4.65;;;;;;;;;;4943972;29;20043;-73
2022/05/08 12:38:33;;;;;;;8.43;4.85;;;;;;;;;;4941467;29;20043;-71
2022/05/08 12:40:59;;;;;;;11.15;4.30;;;;;;;;;;4943516;29;20446;-73
2022/05/08 12:43:26;;;;;;;7.45;5.13;;;;;;;;;;4945452;29;20059;-72
2022/05/08 12:45:53;;;;;;;8.63;5.15;;;;;;;;;;4944851;29;20035;-73
2022/05/08 12:48:21;;;;;;;5.38;4.70;;;;;;;;;;4946593;29;20549;-73
2022/05/08 12:50:48;;;;;;;15.07;5.20;;;;;;;;;;4944965;29;20087;-73
2022/05/08 12:53:14;;;;;;;6.45;4.90;;;;;;;;;;4945563;29;20040;-71
2022/05/08 12:55:40;;;;;;;9.38;5.25;;;;;;;;;;4945873;29;20031;-72
2022/05/08 13:00:50;;;;;;;5.78;5.30;;;;;;;;;;4944091;29;20418;-73
2022/05/08 13:03:16;;;;;;;13.07;4.57;;;;;;;;;;4941892;29;20059;-73
2022/05/08 13:05:44;;;;;;;4.80;4.30;;;;;;;;;;4941771;29;20521;-71
2022/05/08 13:08:10;;;;;;;5.65;5.15;;;;;;;;;;4943235;29;20039;-73
2022/05/08 13:10:35;;;;;;;4.90;4.45;;;;;;;;;;4941405;29;20045;-72
2022/05/08 13:13:01;;;;;;;9.40;5.22;;;;;;;;;;4944075;29;20035;-72
2022/05/08 13:15:27;;;;;;;8.88;5.00;;;;;;;;;;4924585;29;20122;-72
2022/05/08 13:17:54;;;;;;;13.30;5.30;;;;;;;;;;4941345;29;20031;-73
2022/05/08 13:20:20;;;;;;;8.38;5.07;;;;;;;;;;4926037;29;20638;-72
2022/05/08 13:22:46;;;;;;;7.20;5.60;;;;;;;;;;4924214;29;20047;-73
2022/05/08 13:25:12;;;;;;;7.28;4.63;;;;;;;;;;4942228;28;20446;-72
2022/05/08 13:27:39;;;;;;;6.63;4.57;;;;;;;;;;4946453;29;20055;-73
2022/05/08 13:30:07;;;;;;;6.20;5.28;;;;;;;;;;4944963;29;20095;-72
2022/05/08 13:32:36;;;;;;;8.95;4.68;;;;;;;;;;4942965;29;20039;-71
2022/05/08 13:35:02;;;;;;;10.00;5.70;;;;;;;;;;4944554;29;20457;-72
2022/05/08 13:37:30;;;;;;;14.02;6.22;;;;;;;;;;4941885;29;20070;-72
2022/05/08 13:39:59;;;;;;;6.88;5.05;;;;;;;;;;4940531;29;20047;-72
2022/05/08 13:42:25;;;;;;;6.65;5.05;;;;;;;;;;4943739;29;20441;-72
2022/05/08 13:44:51;;;;;;;6.57;5.70;;;;;;;;;;4941843;29;20043;-72
2022/05/08 13:47:17;;;;;;;19.33;7.82;;;;;;;;;;4945503;29;20051;-73
2022/05/08 13:49:44;;;;;;;7.13;5.82;;;;;;;;;;4942591;29;20115;-72
2022/05/08 13:52:10;;;;;;;9.55;7.07;;;;;;;;;;4937755;29;20051;-73
2022/05/08 13:54:37;;;;;;;8.93;6.88;;;;;;;;;;4944267;29;20047;-72
2022/05/08 13:57:05;;;;;;;8.20;6.63;;;;;;;;;;4941511;29;20531;-72
2022/05/08 13:59:31;;;;;;;6.38;5.82;;;;;;;;;;4942321;29;20422;-72
2022/05/08 14:01:57;;;;;;;7.63;6.93;;;;;;;;;;4922765;29;20032;-72
2022/05/08 14:04:23;;;;;;;9.48;6.40;;;;;;;;;;4940397;29;20114;-73
2022/05/08 14:06:53;;;;;;;5.55;5.00;;;;;;;;;;4943069;29;20035;-72
2022/05/08 14:09:18;;;;;;;8.52;5.68;;;;;;;;;;4944756;29;20047;-73
2022/05/08 14:11:44;;;;;;;16.35;6.30;;;;;;;;;;4943387;29;20042;-73
2022/05/08 14:14:10;;;;;;;8.52;7.13;;;;;;;;;;4944572;29;20054;-73
2022/05/08 14:16:36;;;;;;;7.05;5.72;;;;;;;;;;4932342;29;20345;-73
2022/05/08 14:19:02;;;;;;;9.18;7.85;;;;;;;;;;4929469;29;20198;-73
2022/05/08 14:21:28;;;;;;;8.60;7.80;;;;;;;;;;4937800;29;20051;-72
2022/05/08 14:23:54;;;;;;;14.00;8.95;;;;;;;;;;4939164;29;20043;-73
2022/05/08 14:26:20;;;;;;;11.70;8.25;;;;;;;;;;4940994;29;20103;-72
2022/05/08 14:28:46;;;;;;;8.73;7.75;;;;;;;;;;4940456;29;20050;-71
2022/05/08 14:36:41;;;;;;;10.45;9.35;;;;;;;;;;4943494;28;20162;-71
2022/05/08 14:39:07;;;;;;;9.20;8.30;;;;;;;;;;4940477;29;20133;-72
2022/05/08 14:41:33;;;;;;;12.27;9.02;;;;;;;;;;4940151;29;20038;-73
2022/05/08 14:43:58;;;;;;;9.88;8.90;;;;;;;;;;4924603;29;20470;-73
2022/05/08 14:46:24;;;;;;;12.35;8.80;;;;;;;;;;4944314;29;20045;-73
2022/05/08 14:48:50;;;;;;;11.93;8.00;;;;;;;;;;4923164;29;20395;-72
2022/05/08 14:51:16;;;;;;;10.20;7.75;;;;;;;;;;4939654;29;20553;-72
2022/05/08 14:53:43;;;;;;;8.77;7.28;;;;;;;;;;4941392;29;20054;-72
2022/05/08 14:56:12;;;;;;;7.25;6.55;;;;;;;;;;4940136;29;20042;-73
2022/05/08 14:58:38;;;;;;;7.93;6.47;;;;;;;;;;4939318;29;20751;-73
2022/05/08 15:01:04;;;;;;;15.95;7.18;;;;;;;;;;4940784;29;20529;-73
2022/05/08 15:03:31;;;;;;;8.38;7.45;;;;;;;;;;4940024;29;20103;-73
2022/05/08 15:05:57;;;;;;;14.02;7.60;;;;;;;;;;4940756;29;20136;-72
2022/05/08 15:08:23;;;;;;;7.70;6.90;;;;;;;;;;4941194;29;20093;-72
2022/05/08 15:10:49;;;;;;;9.00;7.10;;;;;;;;;;4940316;29;20067;-72
2022/05/08 15:13:15;;;;;;;14.93;8.32;;;;;;;;;;4923073;29;20435;-72
2022/05/08 15:15:41;;;;;;;10.50;8.23;;;;;;;;;;4940574;29;20039;-72